Terminal Aerodrome Forecast
Issued by NWS Cleveland, OH

Home | Current Version | Previous Version | Text Only | Print | Product List | Glossary On
Versions: 1 2 3 4 5 6 7 8 9 10 11 12 13 14 15 16 17 18 19 20 21 22 23 24 25 26 27 28
000
FTUS41 KCLE 170859 AAB
TAFCLE
TAF AMD
KCLE 170859Z 1709/1812 09005KT 6SM BR FEW007 BKN250
      TEMPO 1709/1713 4SM BR SCT007
     FM171500 13006KT P6SM SCT025 BKN200
     FM172300 19007KT P6SM VCSH SCT070 OVC110
     FM180600 21008KT 6SM BR VCSH OVC025=

USA.gov is the U.S. government's official web portal to all federal, state and local government web resources and services.